createdAt,value
2022-09-17T00:01:07.407Z,12.70
2022-09-17T00:03:35.110Z,12.80
2022-09-17T00:06:04.459Z,12.80
2022-09-17T00:08:32.181Z,12.80
2022-09-17T00:11:05.992Z,12.60
2022-09-17T00:13:32.720Z,12.50
2022-09-17T00:15:59.618Z,12.50
2022-09-17T00:18:26.994Z,12.70
2022-09-17T00:20:53.809Z,12.70
2022-09-17T00:23:20.542Z,12.70
2022-09-17T00:25:47.271Z,12.70
2022-09-17T00:28:14.853Z,12.70
2022-09-17T00:30:43.233Z,12.70
2022-09-17T00:33:13.639Z,12.90
2022-09-17T00:35:40.402Z,12.70
2022-09-17T00:38:07.241Z,12.70
2022-09-17T00:40:34.856Z,12.80
2022-09-17T00:43:02.294Z,12.70
2022-09-17T00:45:32.099Z,12.70
2022-09-17T00:48:05.469Z,13.60
2022-09-17T00:50:41.585Z,12.50
2022-09-17T00:53:16.873Z,12.60
2022-09-17T00:55:48.770Z,12.50
2022-09-17T00:58:18.286Z,12.60
2022-09-17T01:00:46.981Z,12.60
2022-09-17T01:03:14.228Z,12.60
2022-09-17T01:05:54.339Z,12.60
2022-09-17T01:08:27.051Z,12.60
2022-09-17T01:11:25.513Z,12.50
2022-09-17T01:13:58.321Z,12.60
2022-09-17T01:16:34.212Z,12.40
2022-09-17T01:19:38.954Z,12.10
2022-09-17T01:22:26.048Z,12.00
2022-09-17T01:25:17.427Z,12.10
2022-09-17T01:28:02.121Z,12.20
2022-09-17T01:30:38.893Z,12.20
2022-09-17T01:33:26.319Z,12.00
2022-09-17T01:35:59.264Z,12.00
2022-09-17T01:38:49.473Z,11.90
2022-09-17T01:41:33.615Z,11.80
2022-09-17T01:44:39.806Z,11.40
2022-09-17T01:47:23.163Z,11.80
2022-09-17T01:49:55.212Z,11.60
2022-09-17T01:52:25.368Z,11.90
2022-09-17T01:54:56.716Z,11.30
2022-09-17T01:57:44.139Z,11.50
2022-09-17T02:00:17.462Z,11.50
2022-09-17T02:02:56.232Z,11.60
2022-09-17T02:05:35.814Z,11.70
2022-09-17T02:08:14.831Z,11.60
2022-09-17T02:10:48.632Z,12.60
2022-09-17T02:13:24.297Z,11.80
2022-09-17T02:16:07.395Z,11.80
2022-09-17T02:18:44.919Z,11.70
2022-09-17T02:21:45.214Z,11.40
2022-09-17T02:24:27.393Z,11.40
2022-09-17T02:27:03.065Z,12.10
2022-09-17T02:29:42.177Z,11.30
2022-09-17T02:32:09.876Z,11.30
2022-09-17T02:34:36.749Z,11.30
2022-09-17T02:37:04.669Z,11.50
2022-09-17T02:39:31.802Z,11.20
2022-09-17T02:42:20.712Z,11.20
2022-09-17T02:45:24.974Z,11.30
2022-09-17T02:47:57.908Z,11.10
2022-09-17T02:50:48.734Z,12.90
2022-09-17T02:53:33.618Z,11.10
2022-09-17T02:56:16.152Z,11.40
2022-09-17T02:58:53.695Z,11.20
2022-09-17T03:01:34.213Z,11.10
2022-09-17T03:04:03.681Z,11.30
2022-09-17T03:06:30.679Z,11.10
2022-09-17T03:08:57.394Z,11.00
2022-09-17T03:11:25.076Z,11.30
2022-09-17T03:13:52.043Z,11.10
2022-09-17T03:16:18.847Z,11.20
2022-09-17T03:18:45.554Z,11.30
2022-09-17T03:21:12.681Z,11.20
2022-09-17T03:23:39.877Z,11.20
2022-09-17T03:26:06.734Z,11.10
2022-09-17T03:28:33.612Z,11.30
2022-09-17T03:31:00.339Z,11.20
2022-09-17T03:33:27.080Z,11.30
2022-09-17T03:35:53.871Z,11.20
2022-09-17T03:38:20.715Z,11.30
2022-09-17T03:41:01.200Z,11.20
2022-09-17T03:43:28.219Z,11.50
2022-09-17T03:45:55.539Z,11.60
2022-09-17T03:48:23.111Z,11.60
2022-09-17T03:50:50.162Z,11.40
2022-09-17T03:53:17.218Z,11.40
2022-09-17T03:55:44.125Z,11.30
2022-09-17T03:58:11.145Z,11.40
2022-09-17T04:00:38.127Z,11.30
2022-09-17T04:03:05.544Z,12.60
2022-09-17T04:05:32.305Z,11.50
2022-09-17T04:07:59.292Z,11.20
2022-09-17T04:10:26.100Z,11.10
2022-09-17T04:12:52.798Z,11.20
2022-09-17T04:15:19.492Z,11.30
2022-09-17T04:17:46.268Z,11.30
2022-09-17T04:20:13.055Z,11.20
2022-09-17T04:22:39.853Z,11.10
2022-09-17T04:25:07.042Z,11.00
2022-09-17T04:27:33.744Z,11.10
2022-09-17T04:30:01.628Z,11.10
2022-09-17T04:32:28.486Z,11.60
2022-09-17T04:34:55.216Z,10.90
2022-09-17T04:37:22.005Z,10.90
2022-09-17T04:39:48.743Z,10.90
2022-09-17T04:42:16.260Z,10.80
2022-09-17T04:44:43.232Z,10.80
2022-09-17T04:47:09.972Z,11.00
2022-09-17T04:49:36.685Z,10.70
2022-09-17T04:52:03.652Z,10.60
2022-09-17T04:54:30.358Z,10.70
2022-09-17T04:56:57.983Z,10.80
2022-09-17T04:59:24.743Z,10.70
2022-09-17T05:01:51.604Z,10.70
2022-09-17T05:04:18.503Z,10.70
2022-09-17T05:06:45.268Z,12.30
2022-09-17T05:09:12.039Z,10.50
2022-09-17T05:11:38.797Z,11.10
2022-09-17T05:14:05.543Z,10.70
2022-09-17T05:16:32.381Z,10.50
2022-09-17T05:18:59.357Z,10.40
2022-09-17T05:21:26.262Z,10.20
2022-09-17T05:23:53.087Z,10.20
2022-09-17T05:26:19.922Z,10.10
2022-09-17T05:28:46.672Z,10.30
2022-09-17T05:31:16.249Z,10.30
2022-09-17T05:33:43.028Z,10.40
2022-09-17T05:36:09.990Z,10.30
2022-09-17T05:38:36.821Z,10.60
2022-09-17T05:41:07.202Z,10.40
2022-09-17T05:43:34.433Z,10.50
2022-09-17T05:46:05.295Z,10.60
2022-09-17T05:48:32.473Z,10.70
2022-09-17T05:50:59.209Z,10.60
2022-09-17T05:53:25.930Z,10.70
2022-09-17T05:55:59.212Z,10.80
2022-09-17T05:58:27.240Z,10.90
2022-09-17T06:00:56.213Z,10.90
2022-09-17T06:03:23.086Z,11.10
2022-09-17T06:06:00.476Z,11.00
2022-09-17T06:08:28.754Z,11.20
2022-09-17T06:10:58.937Z,11.10
2022-09-17T06:13:28.487Z,11.00
2022-09-17T06:15:55.252Z,11.00
2022-09-17T06:18:22.054Z,11.00
2022-09-17T06:20:56.269Z,10.80
2022-09-17T06:23:24.110Z,10.90
2022-09-17T06:25:57.028Z,10.80
2022-09-17T06:28:24.313Z,10.70
2022-09-17T06:30:54.388Z,10.70
2022-09-17T06:33:21.939Z,10.60
2022-09-17T06:35:48.795Z,10.80
2022-09-17T06:38:16.028Z,10.50
2022-09-17T06:40:42.951Z,11.10
2022-09-17T06:43:09.862Z,10.70
2022-09-17T06:45:36.620Z,11.40
2022-09-17T06:48:06.801Z,10.80
2022-09-17T06:50:33.516Z,10.80
2022-09-17T06:53:00.280Z,11.00
2022-09-17T06:55:27.013Z,11.20
2022-09-17T06:57:53.845Z,11.20
2022-09-17T07:00:20.771Z,11.30
2022-09-17T07:03:01.016Z,11.30
2022-09-17T07:05:29.256Z,11.40
2022-09-17T07:07:56.377Z,11.50
2022-09-17T07:10:23.496Z,11.40
2022-09-17T07:12:50.394Z,11.50
2022-09-17T07:15:17.137Z,11.60
2022-09-17T07:17:44.558Z,12.60
2022-09-17T07:20:11.805Z,12.10
2022-09-17T07:22:38.643Z,12.00
2022-09-17T07:25:06.019Z,12.00
2022-09-17T07:27:32.988Z,11.70
2022-09-17T07:29:59.732Z,12.30
2022-09-17T07:32:28.857Z,13.00
2022-09-17T07:34:55.560Z,11.80
2022-09-17T07:37:22.285Z,11.80
2022-09-17T07:39:49.157Z,11.70
2022-09-17T07:42:16.058Z,14.20
2022-09-17T07:44:42.915Z,11.90
2022-09-17T07:47:10.046Z,11.90
2022-09-17T07:49:36.817Z,12.50
2022-09-17T07:52:06.504Z,12.40
2022-09-17T07:54:39.432Z,12.50
2022-09-17T07:57:06.170Z,12.60
2022-09-17T07:59:33.008Z,12.80
2022-09-17T08:01:59.999Z,12.70
2022-09-17T08:04:26.859Z,13.70
2022-09-17T08:06:53.606Z,13.30
2022-09-17T08:09:21.235Z,13.20
2022-09-17T08:11:56.421Z,13.20
2022-09-17T08:14:28.447Z,13.30
2022-09-17T08:16:56.122Z,13.40
2022-09-17T08:19:22.839Z,13.40
2022-09-17T08:21:49.532Z,13.30
2022-09-17T08:24:16.253Z,13.50
2022-09-17T08:26:43.163Z,13.50
2022-09-17T08:29:11.302Z,15.10
2022-09-17T08:31:38.136Z,14.60
2022-09-17T08:34:10.460Z,15.10
2022-09-17T08:36:37.610Z,14.30
2022-09-17T08:39:04.507Z,13.90
2022-09-17T08:41:46.078Z,14.10
2022-09-17T08:44:25.049Z,14.10
2022-09-17T08:47:01.713Z,13.90
2022-09-17T08:49:36.059Z,13.70
2022-09-17T08:52:24.204Z,13.50
2022-09-17T08:55:18.629Z,13.30
2022-09-17T08:58:22.310Z,13.00
2022-09-17T09:01:23.989Z,13.70
2022-09-17T09:04:19.358Z,13.90
2022-09-17T09:07:08.285Z,14.40
2022-09-17T09:09:44.715Z,15.20
2022-09-17T09:12:22.016Z,14.40
2022-09-17T09:14:57.379Z,14.00
2022-09-17T09:17:29.652Z,14.00
2022-09-17T09:19:56.502Z,14.00
2022-09-17T09:22:35.350Z,14.50
2022-09-17T09:25:16.792Z,13.70
2022-09-17T09:28:01.569Z,13.40
2022-09-17T09:30:38.306Z,13.20
2022-09-17T09:33:11.446Z,13.50
2022-09-17T09:35:41.826Z,14.00
2022-09-17T09:38:24.967Z,14.70
2022-09-17T09:41:12.109Z,15.20
2022-09-17T09:44:05.010Z,15.00
2022-09-17T09:47:01.937Z,15.90
2022-09-17T09:50:03.574Z,16.00
2022-09-17T09:53:04.561Z,15.50
2022-09-17T09:56:17.558Z,16.10
2022-09-17T09:58:44.308Z,16.40
2022-09-17T10:01:17.008Z,16.40
2022-09-17T10:03:46.232Z,16.80
2022-09-17T10:06:17.338Z,16.30
2022-09-17T10:08:50.156Z,15.80
2022-09-17T10:11:22.046Z,14.40
2022-09-17T10:13:49.063Z,14.40
2022-09-17T10:16:25.391Z,14.10
2022-09-17T10:19:07.455Z,14.00
2022-09-17T10:21:35.472Z,13.90
2022-09-17T10:24:05.155Z,14.40
2022-09-17T10:26:37.036Z,15.30
2022-09-17T10:29:11.239Z,16.20
2022-09-17T10:31:48.533Z,15.00
2022-09-17T10:34:26.936Z,14.70
2022-09-17T10:36:56.135Z,14.80
2022-09-17T10:39:38.590Z,15.20
2022-09-17T10:42:11.263Z,15.10
2022-09-17T10:44:39.472Z,15.40
2022-09-17T10:47:29.046Z,16.60
2022-09-17T10:50:24.950Z,15.80
2022-09-17T10:52:57.531Z,15.40
2022-09-17T10:55:33.588Z,15.20
2022-09-17T10:58:07.207Z,16.00
2022-09-17T11:01:03.009Z,16.90
2022-09-17T11:03:41.889Z,16.90
2022-09-17T11:07:06.077Z,16.50
2022-09-17T11:10:07.256Z,15.70
2022-09-17T11:12:42.114Z,15.70
2022-09-17T11:15:20.526Z,16.90
2022-09-17T11:18:09.122Z,16.50
2022-09-17T11:20:58.650Z,15.90
2022-09-17T11:23:58.027Z,15.20
2022-09-17T11:26:27.479Z,15.20
2022-09-17T11:29:15.886Z,15.00
2022-09-17T11:32:04.487Z,15.00
2022-09-17T11:34:35.009Z,15.10
2022-09-17T11:37:14.120Z,15.10
2022-09-17T11:39:52.834Z,15.30
2022-09-17T11:42:24.535Z,15.60
2022-09-17T11:45:03.327Z,15.60
2022-09-17T11:47:36.025Z,15.70
2022-09-17T11:50:23.291Z,15.40
2022-09-17T11:53:04.694Z,15.30
2022-09-17T11:55:40.087Z,16.00
2022-09-17T11:58:27.699Z,16.00
2022-09-17T12:01:02.556Z,15.70
2022-09-17T12:04:00.526Z,15.80
2022-09-17T12:06:37.132Z,15.70
2022-09-17T12:09:25.979Z,15.40
2022-09-17T12:12:26.408Z,15.20
2022-09-17T12:15:14.786Z,15.00
2022-09-17T12:18:08.717Z,15.20
2022-09-17T12:20:45.383Z,15.20
2022-09-17T12:23:18.040Z,15.40
2022-09-17T12:26:18.471Z,15.30
2022-09-17T12:29:06.634Z,15.20
2022-09-17T12:31:56.292Z,15.10
2022-09-17T12:34:51.524Z,15.00
2022-09-17T12:37:30.760Z,14.90
2022-09-17T12:40:42.728Z,14.60
2022-09-17T12:43:28.778Z,14.90
2022-09-17T12:46:16.494Z,15.20
2022-09-17T12:49:07.928Z,14.80
2022-09-17T12:52:00.679Z,14.90
2022-09-17T12:54:45.527Z,15.30
2022-09-17T12:57:22.128Z,16.30
2022-09-17T13:00:06.845Z,16.70
2022-09-17T13:02:43.407Z,17.70
2022-09-17T13:05:21.561Z,17.40
2022-09-17T13:08:07.575Z,16.70
2022-09-17T13:11:11.562Z,16.60
2022-09-17T13:13:41.111Z,16.30
2022-09-17T13:16:33.565Z,16.20
2022-09-17T13:19:33.673Z,15.70
2022-09-17T13:22:21.306Z,15.80
2022-09-17T13:25:08.599Z,16.10
2022-09-17T13:27:38.718Z,15.90
2022-09-17T13:30:07.972Z,16.30
2022-09-17T13:32:39.745Z,16.70
2022-09-17T13:35:15.290Z,17.90
2022-09-17T13:37:52.834Z,18.60
2022-09-17T13:40:34.329Z,17.20
2022-09-17T13:43:04.311Z,17.10
2022-09-17T13:45:33.772Z,18.10
2022-09-17T13:48:02.166Z,17.10
2022-09-17T13:50:36.895Z,16.40
2022-09-17T13:53:15.535Z,16.40
2022-09-17T13:55:45.105Z,17.10
2022-09-17T13:58:21.054Z,16.20
2022-09-17T14:01:11.760Z,16.10
2022-09-17T14:03:42.016Z,16.30
2022-09-17T14:06:08.745Z,17.20
2022-09-17T14:08:44.769Z,17.30
2022-09-17T14:11:23.576Z,18.20
2022-09-17T14:13:52.181Z,19.80
2022-09-17T14:16:47.277Z,18.40
2022-09-17T14:19:36.903Z,17.60
2022-09-17T14:22:17.427Z,17.20
2022-09-17T14:24:44.352Z,16.80
2022-09-17T14:27:25.947Z,16.60
2022-09-17T14:30:14.736Z,16.00
2022-09-17T14:33:00.606Z,15.80
2022-09-17T14:35:48.000Z,16.10
2022-09-17T14:38:25.234Z,16.40
2022-09-17T14:41:00.375Z,16.00
2022-09-17T14:43:57.360Z,15.70
2022-09-17T14:46:48.871Z,16.10
2022-09-17T14:49:28.126Z,16.90
2022-09-17T14:51:56.767Z,17.50
2022-09-17T14:54:30.321Z,17.50
2022-09-17T14:57:17.020Z,17.90
2022-09-17T14:59:53.008Z,17.70
2022-09-17T15:02:44.166Z,18.60
2022-09-17T15:05:31.870Z,17.60
2022-09-17T15:08:10.486Z,17.70
2022-09-17T15:10:46.070Z,17.80
2022-09-17T15:13:35.465Z,17.90
2022-09-17T15:16:04.810Z,18.00
2022-09-17T15:18:44.040Z,18.40
2022-09-17T15:21:24.279Z,18.60
2022-09-17T15:23:53.599Z,18.50
2022-09-17T15:26:27.144Z,18.20
2022-09-17T15:28:55.952Z,18.20
2022-09-17T15:31:23.662Z,18.10
2022-09-17T15:33:50.883Z,17.60
2022-09-17T15:36:28.020Z,17.80
2022-09-17T15:38:54.753Z,18.00
2022-09-17T15:41:35.332Z,18.00
2022-09-17T15:44:32.122Z,17.20
2022-09-17T15:47:39.271Z,17.40
2022-09-17T15:50:21.537Z,17.70
2022-09-17T15:52:49.867Z,17.40
2022-09-17T15:55:35.480Z,18.00
2022-09-17T15:58:06.055Z,17.00
2022-09-17T16:00:32.878Z,16.70
2022-09-17T16:03:43.548Z,16.50
2022-09-17T16:06:19.620Z,16.20
2022-09-17T16:08:51.604Z,15.90
2022-09-17T16:11:21.102Z,15.70
2022-09-17T16:13:48.675Z,15.70
2022-09-17T16:16:24.399Z,15.20
2022-09-17T16:18:51.270Z,15.10
2022-09-17T16:21:19.984Z,15.00
2022-09-17T16:23:46.843Z,17.10
2022-09-17T16:26:20.410Z,15.40
2022-09-17T16:28:49.657Z,14.90
2022-09-17T16:31:16.483Z,14.70
2022-09-17T16:33:43.243Z,14.70
2022-09-17T16:36:10.055Z,14.50
2022-09-17T16:38:37.064Z,14.50
2022-09-17T16:41:06.632Z,14.20
2022-09-17T16:43:34.636Z,14.60
2022-09-17T16:46:04.029Z,14.10
2022-09-17T16:48:33.296Z,13.90
2022-09-17T16:51:01.603Z,13.80
2022-09-17T16:53:28.354Z,13.80
2022-09-17T16:55:55.104Z,13.80
2022-09-17T16:58:21.843Z,13.90
2022-09-17T17:00:48.589Z,13.70
2022-09-17T17:03:16.013Z,13.50
2022-09-17T17:05:43.518Z,14.10
2022-09-17T17:08:10.559Z,13.40
2022-09-17T17:10:40.707Z,13.60
2022-09-17T17:13:07.413Z,13.30
2022-09-17T17:15:34.134Z,13.30
2022-09-17T17:18:00.975Z,13.30
2022-09-17T17:20:27.776Z,13.20
2022-09-17T17:22:55.358Z,13.20
2022-09-17T17:25:23.977Z,13.20
2022-09-17T17:27:50.709Z,13.00
2022-09-17T17:30:17.839Z,12.90
2022-09-17T17:32:48.773Z,12.90
2022-09-17T17:35:15.765Z,12.90
2022-09-17T17:37:42.709Z,12.90
2022-09-17T17:40:10.325Z,12.80
2022-09-17T17:42:39.590Z,12.70
2022-09-17T17:45:07.518Z,12.60
2022-09-17T17:47:34.818Z,12.50
2022-09-17T17:50:01.705Z,13.70
2022-09-17T17:52:28.554Z,12.50
2022-09-17T17:54:55.311Z,12.40
2022-09-17T17:57:22.126Z,12.40
2022-09-17T17:59:48.840Z,12.50
2022-09-17T18:02:15.665Z,12.50
2022-09-17T18:04:42.576Z,12.60
2022-09-17T18:07:09.335Z,12.50
2022-09-17T18:09:36.110Z,12.60
2022-09-17T18:12:03.147Z,14.30
2022-09-17T18:14:30.059Z,12.70
2022-09-17T18:16:56.798Z,12.70
2022-09-17T18:19:23.561Z,12.80
2022-09-17T18:21:50.277Z,12.70
2022-09-17T18:24:17.077Z,12.90
2022-09-17T18:26:43.867Z,12.70
2022-09-17T18:29:11.847Z,12.70
2022-09-17T18:31:38.857Z,14.40
2022-09-17T18:34:08.232Z,12.70
2022-09-17T18:36:36.144Z,12.70
2022-09-17T18:41:52.758Z,12.70
2022-09-17T18:44:21.845Z,12.80
2022-09-17T18:46:50.249Z,12.70
2022-09-17T18:49:17.246Z,13.60
2022-09-17T18:51:44.106Z,12.80
2022-09-17T18:54:12.829Z,13.00
2022-09-17T18:56:41.697Z,12.80
2022-09-17T18:59:09.753Z,13.40
2022-09-17T19:01:36.634Z,12.70
2022-09-17T19:04:04.080Z,12.70
2022-09-17T19:06:32.299Z,12.70
2022-09-17T19:09:00.898Z,12.70
2022-09-17T19:11:27.921Z,12.40
2022-09-17T19:13:54.726Z,12.30
2022-09-17T19:16:21.573Z,13.00
2022-09-17T19:18:48.431Z,12.40
2022-09-17T19:21:17.446Z,12.40
2022-09-17T19:23:47.130Z,12.30
2022-09-17T19:26:19.535Z,12.90
2022-09-17T19:28:46.762Z,12.30
2022-09-17T19:31:15.817Z,12.30
2022-09-17T19:33:43.433Z,12.40
2022-09-17T19:36:15.875Z,12.30
2022-09-17T19:38:43.239Z,12.30
2022-09-17T19:41:13.155Z,12.30
2022-09-17T19:43:40.650Z,12.40
2022-09-17T19:46:13.879Z,12.40
2022-09-17T19:48:48.621Z,12.40
2022-09-17T19:51:16.618Z,12.80
2022-09-17T19:53:43.644Z,12.30
2022-09-17T19:56:14.996Z,12.60
2022-09-17T19:58:42.647Z,12.80
2022-09-17T20:01:09.968Z,12.80
2022-09-17T20:03:42.857Z,12.50
2022-09-17T20:06:17.516Z,12.40
2022-09-17T20:08:49.389Z,12.40
2022-09-17T20:11:17.197Z,13.10
2022-09-17T20:13:44.290Z,13.00
2022-09-17T20:16:13.730Z,12.50
2022-09-17T20:18:40.681Z,12.70
2022-09-17T20:21:25.826Z,12.80
2022-09-17T20:23:52.581Z,12.60
2022-09-17T20:26:19.302Z,12.70
2022-09-17T20:28:46.746Z,12.60
2022-09-17T20:31:22.112Z,12.90
2022-09-17T20:33:53.195Z,12.70
2022-09-17T20:36:22.550Z,12.70
2022-09-17T20:41:40.462Z,12.60
2022-09-17T20:44:07.982Z,12.60
2022-09-17T20:46:34.823Z,12.90
2022-09-17T20:49:01.664Z,12.60
2022-09-17T20:51:30.335Z,13.20
2022-09-17T20:53:57.695Z,12.80
2022-09-17T20:56:30.254Z,12.60
2022-09-17T20:59:08.621Z,12.90
2022-09-17T21:01:37.625Z,12.70
2022-09-17T21:04:07.231Z,13.40
2022-09-17T21:06:41.843Z,12.60
2022-09-17T21:09:15.848Z,13.00
2022-09-17T21:11:47.183Z,12.70
2022-09-17T21:14:15.832Z,14.50
2022-09-17T21:16:43.003Z,12.60
2022-09-17T21:19:12.290Z,12.60
2022-09-17T21:21:39.175Z,12.40
2022-09-17T21:24:07.338Z,12.50
2022-09-17T21:26:34.932Z,12.60
2022-09-17T21:29:02.352Z,12.40
2022-09-17T21:31:32.678Z,12.40
2022-09-17T21:34:05.441Z,12.40
2022-09-17T21:36:34.748Z,12.40
2022-09-17T21:39:04.330Z,12.80
2022-09-17T21:41:31.742Z,13.70
2022-09-17T21:43:59.161Z,12.50
2022-09-17T21:46:28.083Z,12.30
2022-09-17T21:48:57.401Z,12.30
2022-09-17T21:51:30.241Z,12.40
2022-09-17T21:54:00.722Z,12.30
2022-09-17T21:56:28.719Z,12.40
2022-09-17T21:59:01.191Z,12.30
2022-09-17T22:01:43.953Z,12.20
2022-09-17T22:04:13.143Z,12.20
2022-09-17T22:06:40.915Z,11.90
2022-09-17T22:09:12.501Z,11.90
2022-09-17T22:11:39.253Z,11.90
2022-09-17T22:14:11.021Z,12.40
2022-09-17T22:16:44.348Z,11.90
2022-09-17T22:19:13.156Z,13.20
2022-09-17T22:21:45.978Z,12.00
2022-09-17T22:24:14.615Z,11.90
2022-09-17T22:26:44.543Z,11.90
2022-09-17T22:29:14.057Z,12.10
2022-09-17T22:31:41.666Z,11.90
2022-09-17T22:34:10.743Z,12.00
2022-09-17T22:36:38.393Z,13.10
2022-09-17T22:39:06.405Z,11.80
2022-09-17T22:41:36.113Z,12.60
2022-09-17T22:44:06.118Z,12.00
2022-09-17T22:46:39.456Z,11.80
2022-09-17T22:49:08.067Z,11.90
2022-09-17T22:51:34.943Z,11.80
2022-09-17T22:54:01.869Z,11.80
2022-09-17T22:56:29.385Z,11.90
2022-09-17T22:58:57.606Z,11.80
2022-09-17T23:01:30.075Z,11.80
2022-09-17T23:03:58.092Z,11.40
2022-09-17T23:06:29.508Z,11.70
2022-09-17T23:08:57.118Z,11.80
2022-09-17T23:11:27.076Z,11.70
2022-09-17T23:14:01.959Z,12.20
2022-09-17T23:16:33.443Z,11.90
2022-09-17T23:19:00.251Z,11.70
2022-09-17T23:21:26.953Z,11.70
2022-09-17T23:23:53.675Z,11.70
2022-09-17T23:26:25.854Z,11.40
2022-09-17T23:28:53.112Z,11.20
2022-09-17T23:31:25.746Z,11.00
2022-09-17T23:33:53.337Z,10.80
2022-09-17T23:36:22.671Z,12.40
2022-09-17T23:38:50.411Z,10.90
2022-09-17T23:41:26.812Z,11.00
2022-09-17T23:43:55.993Z,11.10
2022-09-17T23:46:24.545Z,11.10
2022-09-17T23:48:53.427Z,11.00
2022-09-17T23:51:24.856Z,11.00
2022-09-17T23:53:52.233Z,10.90
2022-09-17T23:56:22.006Z,10.90
2022-09-17T23:58:49.938Z,10.80
